createdAt,value
2018-10-05T00:00:30.916Z,11.51
2018-10-05T00:01:30.951Z,11.55
2018-10-05T00:02:30.895Z,11.57
2018-10-05T00:03:30.885Z,11.52
2018-10-05T00:04:30.901Z,11.45
2018-10-05T00:05:30.863Z,11.54
2018-10-05T00:06:30.940Z,11.48
2018-10-05T00:07:30.857Z,11.51
2018-10-05T00:08:30.833Z,11.48
2018-10-05T00:09:30.826Z,11.54
2018-10-05T00:10:30.806Z,11.55
2018-10-05T00:11:30.796Z,11.50
2018-10-05T00:12:30.898Z,11.55
2018-10-05T00:13:30.790Z,11.43
2018-10-05T00:14:30.859Z,11.50
2018-10-05T00:15:30.749Z,11.47
2018-10-05T00:16:30.772Z,11.43
2018-10-05T00:17:30.765Z,11.40
2018-10-05T00:18:30.746Z,11.47
2018-10-05T00:19:30.720Z,11.37
2018-10-05T00:20:30.745Z,11.40
2018-10-05T00:21:30.729Z,11.43
2018-10-05T00:22:30.675Z,11.27
2018-10-05T00:23:30.675Z,11.41
2018-10-05T00:24:30.665Z,11.29
2018-10-05T00:25:30.649Z,11.44
2018-10-05T00:26:30.626Z,11.29
2018-10-05T00:27:30.618Z,11.40
2018-10-05T00:28:30.603Z,11.40
2018-10-05T00:29:30.611Z,11.43
2018-10-05T00:30:30.700Z,11.32
2018-10-05T00:31:30.591Z,11.27
2018-10-05T00:32:30.659Z,11.36
2018-10-05T00:33:30.569Z,11.41
2018-10-05T00:34:30.539Z,11.37
2018-10-05T00:35:30.535Z,11.35
2018-10-05T00:36:39.931Z,11.30
2018-10-05T00:37:30.541Z,11.26
2018-10-05T00:38:30.616Z,11.35
2018-10-05T00:39:30.521Z,11.41
2018-10-05T00:40:30.592Z,11.40
2018-10-05T00:41:30.474Z,11.43
2018-10-05T00:42:30.466Z,11.40
2018-10-05T00:43:30.456Z,11.41
2018-10-05T00:44:30.593Z,11.40
2018-10-05T00:45:30.416Z,11.36
2018-10-05T00:46:30.405Z,11.41
2018-10-05T00:47:30.458Z,11.32
2018-10-05T00:48:30.413Z,11.32
2018-10-05T00:49:30.403Z,11.32
2018-10-05T00:50:30.413Z,11.27
2018-10-05T00:51:30.350Z,11.22
2018-10-05T00:52:30.474Z,11.22
2018-10-05T00:53:39.426Z,11.23
2018-10-05T00:54:30.493Z,11.17
2018-10-05T00:55:30.340Z,11.17
2018-10-05T00:56:30.323Z,11.12
2018-10-05T00:57:30.311Z,11.10
2018-10-05T00:58:30.285Z,11.12
2018-10-05T00:59:30.279Z,11.07
2018-10-05T01:00:30.250Z,11.12
2018-10-05T01:01:30.256Z,11.08
2018-10-05T01:02:30.256Z,11.07
2018-10-05T01:03:30.218Z,11.04
2018-10-05T01:04:30.224Z,11.10
2018-10-05T01:05:30.228Z,11.10
2018-10-05T01:06:30.208Z,11.05
2018-10-05T01:07:30.185Z,11.11
2018-10-05T01:08:30.312Z,11.14
2018-10-05T01:09:30.158Z,11.07
2018-10-05T01:10:30.169Z,11.07
2018-10-05T01:11:30.141Z,11.05
2018-10-05T01:12:30.152Z,11.04
2018-10-05T01:13:30.102Z,10.99
2018-10-05T01:14:30.109Z,10.97
2018-10-05T01:15:30.248Z,10.84
2018-10-05T01:16:30.072Z,10.87
2018-10-05T01:17:30.057Z,10.82
2018-10-05T01:18:30.072Z,10.76
2018-10-05T01:19:30.035Z,10.72
2018-10-05T01:20:30.038Z,10.69
2018-10-05T01:21:30.084Z,10.68
2018-10-05T01:22:30.026Z,10.68
2018-10-05T01:23:30.086Z,10.61
2018-10-05T01:24:30.025Z,10.60
2018-10-05T01:25:29.971Z,10.56
2018-10-05T01:26:30.121Z,10.54
2018-10-05T01:27:29.951Z,10.41
2018-10-05T01:28:29.949Z,10.57
2018-10-05T01:29:29.927Z,10.41
2018-10-05T01:30:29.946Z,10.41
2018-10-05T01:31:37.887Z,10.42
2018-10-05T01:32:30.023Z,10.40
2018-10-05T01:33:29.936Z,10.41
2018-10-05T01:34:30.024Z,10.42
2018-10-05T01:35:29.967Z,10.42
2018-10-05T01:36:29.875Z,10.37
2018-10-05T01:37:29.837Z,10.35
2018-10-05T01:38:29.839Z,10.34
2018-10-05T01:39:29.876Z,10.30
2018-10-05T01:40:29.802Z,10.35
2018-10-05T01:41:29.830Z,10.37
2018-10-05T01:42:29.798Z,10.35
2018-10-05T01:43:29.863Z,10.33
2018-10-05T01:44:29.759Z,10.37
2018-10-05T01:45:29.759Z,10.33
2018-10-05T01:46:29.799Z,10.37
2018-10-05T01:47:29.748Z,10.30
2018-10-05T01:48:38.419Z,10.35
2018-10-05T01:49:29.820Z,10.34
2018-10-05T01:50:29.797Z,10.41
2018-10-05T01:51:29.738Z,10.30
2018-10-05T01:52:29.700Z,10.35
2018-10-05T01:53:29.837Z,10.34
2018-10-05T01:54:29.713Z,10.35
2018-10-05T01:55:29.638Z,10.33
2018-10-05T01:56:29.625Z,10.37
2018-10-05T01:57:29.613Z,10.31
2018-10-05T01:58:29.636Z,10.33
2018-10-05T01:59:29.614Z,10.25
2018-10-05T02:00:29.578Z,10.20
2018-10-05T02:01:29.631Z,10.30
2018-10-05T02:02:29.604Z,10.20
2018-10-05T02:03:29.548Z,10.30
2018-10-05T02:04:29.559Z,10.17
2018-10-05T02:05:29.535Z,10.20
2018-10-05T02:06:37.602Z,10.22
2018-10-05T02:07:29.516Z,10.19
2018-10-05T02:08:29.506Z,10.10
2018-10-05T02:09:29.525Z,10.16
2018-10-05T02:10:29.583Z,10.12
2018-10-05T02:11:29.582Z,10.02
2018-10-05T02:12:29.478Z,10.16
2018-10-05T02:13:29.434Z,10.19
2018-10-05T02:14:29.488Z,10.09
2018-10-05T02:15:29.435Z,10.17
2018-10-05T02:16:29.401Z,10.12
2018-10-05T02:17:29.412Z,10.05
2018-10-05T02:18:29.421Z,10.13
2018-10-05T02:19:29.367Z,10.07
2018-10-05T02:20:29.386Z,10.04
2018-10-05T02:21:29.414Z,10.10
2018-10-05T02:22:29.333Z,9.97
2018-10-05T02:23:37.249Z,10.01
2018-10-05T02:24:29.323Z,10.04
2018-10-05T02:25:29.337Z,9.95
2018-10-05T02:26:29.435Z,9.98
2018-10-05T02:27:29.326Z,9.95
2018-10-05T02:28:29.310Z,9.91
2018-10-05T02:29:29.256Z,9.98
2018-10-05T02:30:29.274Z,9.94
2018-10-05T02:31:29.232Z,9.94
2018-10-05T02:32:29.227Z,9.89
2018-10-05T02:33:29.267Z,9.89
2018-10-05T02:34:29.199Z,9.84
2018-10-05T02:35:29.224Z,9.82
2018-10-05T02:36:29.180Z,9.91
2018-10-05T02:37:29.165Z,9.87
2018-10-05T02:38:29.188Z,9.82
2018-10-05T02:39:29.157Z,9.83
2018-10-05T02:40:29.136Z,9.80
2018-10-05T02:41:29.219Z,9.87
2018-10-05T02:42:29.112Z,9.80
2018-10-05T02:43:29.100Z,9.77
2018-10-05T02:44:29.087Z,9.73
2018-10-05T02:45:29.159Z,9.73
2018-10-05T02:46:29.064Z,9.73
2018-10-05T02:47:29.157Z,9.77
2018-10-05T02:48:29.093Z,9.82
2018-10-05T02:49:29.034Z,9.72
2018-10-05T02:50:29.023Z,9.66
2018-10-05T02:51:29.111Z,9.66
2018-10-05T02:52:29.001Z,9.73
2018-10-05T02:53:29.063Z,9.66
2018-10-05T02:54:28.979Z,9.65
2018-10-05T02:55:28.977Z,9.64
2018-10-05T02:56:28.957Z,9.65
2018-10-05T02:57:28.943Z,9.69
2018-10-05T02:58:28.935Z,9.59
2018-10-05T02:59:28.934Z,9.55
2018-10-05T03:00:28.996Z,9.51
2018-10-05T03:01:37.905Z,9.48
2018-10-05T03:02:28.890Z,9.40
2018-10-05T03:03:28.915Z,9.54
2018-10-05T03:04:28.928Z,9.59
2018-10-05T03:05:28.990Z,9.51
2018-10-05T03:06:28.876Z,9.47
2018-10-05T03:07:28.886Z,9.54
2018-10-05T03:08:28.823Z,9.47
2018-10-05T03:09:28.811Z,9.51
2018-10-05T03:10:28.912Z,9.46
2018-10-05T03:11:28.787Z,9.50
2018-10-05T03:12:28.776Z,9.44
2018-10-05T03:13:28.790Z,9.40
2018-10-05T03:14:28.754Z,9.44
2018-10-05T03:15:28.816Z,9.41
2018-10-05T03:16:28.793Z,9.36
2018-10-05T03:17:28.726Z,9.37
2018-10-05T03:18:28.709Z,9.36
2018-10-05T03:19:36.779Z,9.36
2018-10-05T03:20:28.858Z,9.29
2018-10-05T03:21:28.709Z,9.34
2018-10-05T03:22:28.821Z,9.34
2018-10-05T03:23:28.690Z,9.25
2018-10-05T03:24:28.645Z,9.40
2018-10-05T03:25:28.657Z,9.28
2018-10-05T03:26:28.661Z,9.34
2018-10-05T03:27:28.773Z,9.29
2018-10-05T03:28:28.754Z,9.36
2018-10-05T03:29:28.589Z,9.22
2018-10-05T03:30:28.605Z,9.31
2018-10-05T03:31:28.571Z,9.23
2018-10-05T03:32:28.561Z,9.28
2018-10-05T03:33:28.568Z,9.25
2018-10-05T03:34:28.548Z,9.23
2018-10-05T03:35:28.521Z,9.31
2018-10-05T03:36:28.507Z,9.31
2018-10-05T03:37:36.651Z,9.26
2018-10-05T03:38:28.507Z,9.29
2018-10-05T03:39:28.503Z,9.31
2018-10-05T03:40:28.591Z,9.32
2018-10-05T03:41:28.602Z,9.29
2018-10-05T03:42:28.489Z,9.18
2018-10-05T03:43:28.456Z,9.19
2018-10-05T03:44:28.421Z,9.32
2018-10-05T03:45:28.456Z,9.29
2018-10-05T03:46:28.404Z,9.23
2018-10-05T03:47:28.415Z,9.23
2018-10-05T03:48:28.419Z,9.23
2018-10-05T03:49:28.411Z,9.19
2018-10-05T03:50:28.355Z,9.18
2018-10-05T03:51:28.364Z,9.19
2018-10-05T03:52:28.402Z,9.21
2018-10-05T03:53:28.320Z,9.18
2018-10-05T03:54:36.372Z,9.08
2018-10-05T03:55:28.318Z,9.16
2018-10-05T03:56:28.317Z,9.21
2018-10-05T03:57:28.303Z,9.16
2018-10-05T03:58:28.428Z,9.13
2018-10-05T03:59:28.310Z,9.21
2018-10-05T04:00:28.248Z,9.19
2018-10-05T04:01:28.229Z,9.13
2018-10-05T04:02:28.272Z,9.10
2018-10-05T04:03:28.284Z,9.04
2018-10-05T04:04:28.235Z,9.08
2018-10-05T04:05:28.285Z,9.14
2018-10-05T04:06:28.226Z,9.03
2018-10-05T04:07:28.232Z,9.06
2018-10-05T04:08:28.158Z,9.02
2018-10-05T04:09:28.145Z,9.02
2018-10-05T04:10:28.144Z,8.91
2018-10-05T04:11:28.139Z,8.94
2018-10-05T04:12:28.112Z,8.87
2018-10-05T04:13:28.099Z,8.89
2018-10-05T04:14:28.089Z,8.82
2018-10-05T04:15:28.110Z,8.87
2018-10-05T04:16:28.066Z,8.84
2018-10-05T04:17:28.076Z,8.79
2018-10-05T04:18:28.092Z,8.85
2018-10-05T04:19:28.037Z,8.87
2018-10-05T04:20:28.022Z,8.87
2018-10-05T04:21:28.009Z,8.84
2018-10-05T04:22:28.001Z,8.94
2018-10-05T04:23:28.005Z,8.81
2018-10-05T04:24:27.978Z,8.87
2018-10-05T04:25:27.995Z,8.81
2018-10-05T04:26:27.955Z,8.85
2018-10-05T04:27:27.943Z,8.99
2018-10-05T04:28:27.962Z,8.88
2018-10-05T04:29:28.044Z,8.85
2018-10-05T04:30:27.913Z,8.82
2018-10-05T04:31:35.536Z,8.84
2018-10-05T04:32:27.905Z,8.76
2018-10-05T04:33:27.893Z,8.81
2018-10-05T04:34:27.874Z,8.81
2018-10-05T04:35:27.906Z,8.78
2018-10-05T04:36:27.849Z,8.76
2018-10-05T04:37:27.873Z,8.81
2018-10-05T04:38:27.942Z,8.78
2018-10-05T04:39:27.879Z,8.82
2018-10-05T04:40:27.829Z,8.79
2018-10-05T04:41:27.807Z,8.76
2018-10-05T04:42:27.816Z,8.73
2018-10-05T04:43:27.774Z,8.78
2018-10-05T04:44:27.755Z,8.76
2018-10-05T04:45:27.769Z,8.79
2018-10-05T04:46:27.764Z,8.81
2018-10-05T04:47:27.743Z,8.78
2018-10-05T04:48:35.624Z,8.79
2018-10-05T04:49:27.739Z,8.81
2018-10-05T04:50:27.711Z,8.79
2018-10-05T04:51:27.825Z,8.81
2018-10-05T04:52:27.690Z,8.79
2018-10-05T04:53:27.675Z,8.81
2018-10-05T04:54:27.682Z,8.79
2018-10-05T04:55:27.769Z,8.79
2018-10-05T04:56:27.754Z,8.71
2018-10-05T04:57:27.632Z,8.78
2018-10-05T04:58:27.602Z,8.82
2018-10-05T04:59:27.671Z,8.82
2018-10-05T05:00:27.582Z,8.81
2018-10-05T05:01:27.569Z,8.81
2018-10-05T05:02:27.571Z,8.73
2018-10-05T05:03:27.581Z,8.73
2018-10-05T05:04:27.534Z,8.70
2018-10-05T05:05:27.541Z,8.79
2018-10-05T05:06:27.518Z,8.67
2018-10-05T05:07:35.459Z,8.69
2018-10-05T05:08:27.601Z,8.67
2018-10-05T05:09:27.483Z,8.61
2018-10-05T05:10:27.493Z,8.64
2018-10-05T05:11:27.533Z,8.64
2018-10-05T05:12:27.563Z,8.64
2018-10-05T05:13:27.442Z,8.64
2018-10-05T05:14:27.428Z,8.67
2018-10-05T05:15:27.428Z,8.69
2018-10-05T05:16:27.402Z,8.64
2018-10-05T05:17:27.501Z,8.67
2018-10-05T05:18:27.384Z,8.63
2018-10-05T05:19:27.405Z,8.63
2018-10-05T05:20:27.383Z,8.66
2018-10-05T05:21:27.347Z,8.64
2018-10-05T05:22:27.339Z,8.63
2018-10-05T05:23:27.378Z,8.60
2018-10-05T05:24:27.313Z,8.55
2018-10-05T05:25:27.307Z,8.60
2018-10-05T05:26:27.293Z,8.53
2018-10-05T05:27:27.328Z,8.51
2018-10-05T05:28:27.269Z,8.55
2018-10-05T05:29:27.315Z,8.53
2018-10-05T05:30:27.328Z,8.49
2018-10-05T05:31:27.271Z,8.46
2018-10-05T05:32:27.227Z,8.48
2018-10-05T05:33:27.321Z,8.46
2018-10-05T05:34:27.247Z,8.46
2018-10-05T05:35:27.211Z,8.46
2018-10-05T05:36:27.202Z,8.46
2018-10-05T05:37:27.172Z,8.48
2018-10-05T05:38:27.160Z,8.46
2018-10-05T05:39:27.155Z,8.44
2018-10-05T05:40:27.151Z,8.49
2018-10-05T05:41:27.150Z,8.46
2018-10-05T05:42:27.173Z,8.48
2018-10-05T05:43:35.261Z,8.41
2018-10-05T05:44:27.205Z,8.44
2018-10-05T05:45:27.083Z,8.44
2018-10-05T05:46:27.106Z,8.46
2018-10-05T05:47:27.078Z,8.45
2018-10-05T05:48:27.049Z,8.51
2018-10-05T05:49:27.091Z,8.48
2018-10-05T05:50:27.080Z,8.37
2018-10-05T05:51:27.092Z,8.33
2018-10-05T05:52:27.008Z,8.38
2018-10-05T05:53:27.041Z,8.41
2018-10-05T05:54:27.038Z,8.42
2018-10-05T05:55:26.971Z,8.36
2018-10-05T05:56:26.991Z,8.34
2018-10-05T05:57:27.055Z,8.27
2018-10-05T05:58:26.939Z,8.37
2018-10-05T05:59:26.943Z,8.41
2018-10-05T06:00:26.914Z,8.36
2018-10-05T06:01:34.803Z,8.34
2018-10-05T06:02:26.917Z,8.34
2018-10-05T06:03:26.987Z,8.37
2018-10-05T06:04:27.051Z,8.33
2018-10-05T06:05:26.865Z,8.44
2018-10-05T06:06:26.854Z,8.42
2018-10-05T06:07:26.848Z,8.44
2018-10-05T06:08:26.828Z,8.45
2018-10-05T06:09:26.815Z,8.44
2018-10-05T06:10:26.863Z,8.51
2018-10-05T06:11:26.837Z,8.49
2018-10-05T06:12:26.850Z,8.53
2018-10-05T06:13:26.773Z,8.49
2018-10-05T06:14:26.780Z,8.55
2018-10-05T06:15:26.831Z,8.58
2018-10-05T06:16:26.848Z,8.53
2018-10-05T06:17:26.729Z,8.61
2018-10-05T06:18:26.816Z,8.58
2018-10-05T06:19:26.749Z,8.55
2018-10-05T06:20:34.379Z,8.60
2018-10-05T06:21:26.772Z,8.53
2018-10-05T06:22:26.827Z,8.60
2018-10-05T06:23:26.686Z,8.61
2018-10-05T06:24:26.651Z,8.66
2018-10-05T06:25:26.782Z,8.63
2018-10-05T06:26:26.700Z,8.61
2018-10-05T06:27:26.683Z,8.56
2018-10-05T06:28:26.626Z,8.63
2018-10-05T06:29:26.626Z,8.69
2018-10-05T06:30:26.598Z,8.69
2018-10-05T06:31:26.572Z,8.61
2018-10-05T06:32:26.561Z,8.67
2018-10-05T06:33:26.566Z,8.69
2018-10-05T06:34:26.560Z,8.64
2018-10-05T06:35:26.527Z,8.66
2018-10-05T06:36:26.518Z,8.64
2018-10-05T06:37:26.509Z,8.67
2018-10-05T06:38:35.136Z,8.63
2018-10-05T06:39:26.503Z,8.78
2018-10-05T06:40:26.492Z,8.71
2018-10-05T06:41:26.485Z,8.78
2018-10-05T06:42:26.558Z,8.82
2018-10-05T06:43:26.548Z,8.79
2018-10-05T06:44:26.427Z,8.87
2018-10-05T06:45:26.443Z,8.91
2018-10-05T06:46:26.487Z,8.88
2018-10-05T06:47:26.397Z,8.88
2018-10-05T06:48:26.387Z,8.95
2018-10-05T06:49:26.414Z,8.88
2018-10-05T06:50:26.361Z,9.04
2018-10-05T06:51:26.391Z,9.13
2018-10-05T06:52:26.422Z,9.14
2018-10-05T06:53:26.334Z,9.16
2018-10-05T06:54:26.321Z,9.19
2018-10-05T06:55:34.540Z,9.29
2018-10-05T06:56:26.342Z,9.29
2018-10-05T06:57:26.289Z,9.26
2018-10-05T06:58:26.329Z,9.34
2018-10-05T06:59:26.405Z,9.40
2018-10-05T07:00:26.320Z,9.44
2018-10-05T07:01:26.266Z,9.47
2018-10-05T07:02:26.236Z,9.48
2018-10-05T07:03:26.252Z,9.50
2018-10-05T07:04:26.598Z,9.54
2018-10-05T07:05:26.331Z,9.51
2018-10-05T07:06:26.232Z,9.56
2018-10-05T07:07:26.220Z,9.66
2018-10-05T07:08:26.191Z,9.72
2018-10-05T07:09:26.264Z,9.69
2018-10-05T07:10:26.157Z,9.79
2018-10-05T07:11:26.265Z,9.76
2018-10-05T07:12:26.164Z,9.82
2018-10-05T07:13:26.107Z,9.94
2018-10-05T07:14:34.249Z,9.91
2018-10-05T07:15:26.123Z,9.97
2018-10-05T07:16:26.095Z,10.07
2018-10-05T07:17:26.129Z,10.07
2018-10-05T07:18:26.054Z,10.12
2018-10-05T07:19:26.040Z,10.07
2018-10-05T07:20:26.170Z,10.05
2018-10-05T07:21:26.092Z,10.15
2018-10-05T07:22:26.328Z,10.17
2018-10-05T07:23:26.089Z,10.16
2018-10-05T07:24:26.023Z,10.25
2018-10-05T07:25:25.996Z,10.35
2018-10-05T07:26:26.010Z,10.38
2018-10-05T07:27:26.042Z,10.40
2018-10-05T07:28:25.987Z,10.53
2018-10-05T07:29:25.949Z,10.56
2018-10-05T07:30:25.956Z,10.53
2018-10-05T07:31:25.907Z,10.61
2018-10-05T07:32:25.897Z,10.72
2018-10-05T07:33:25.886Z,10.75
2018-10-05T07:34:25.872Z,10.86
2018-10-05T07:35:25.937Z,10.93
2018-10-05T07:36:25.849Z,10.96
2018-10-05T07:37:25.906Z,10.90
2018-10-05T07:38:25.849Z,11.19
2018-10-05T07:39:25.845Z,11.50
2018-10-05T07:40:25.822Z,12.09
2018-10-05T07:41:25.809Z,12.62
2018-10-05T07:42:25.785Z,13.30
2018-10-05T07:43:26.008Z,13.97
2018-10-05T07:44:25.762Z,14.62
2018-10-05T07:45:25.786Z,14.97
2018-10-05T07:46:25.740Z,15.17
2018-10-05T07:47:25.727Z,15.49
2018-10-05T07:48:25.715Z,15.70
2018-10-05T07:49:25.762Z,15.84
2018-10-05T07:50:25.695Z,15.55
2018-10-05T07:51:25.760Z,15.51
2018-10-05T07:52:25.673Z,15.57
2018-10-05T07:53:33.365Z,15.57
2018-10-05T07:54:33.772Z,15.51
2018-10-05T07:55:25.708Z,15.44
2018-10-05T07:56:25.681Z,15.37
2018-10-05T07:57:25.781Z,15.37
2018-10-05T07:58:25.642Z,15.43
2018-10-05T07:59:25.602Z,15.46
2018-10-05T08:00:25.632Z,15.58
2018-10-05T08:01:25.577Z,15.54
2018-10-05T08:02:25.583Z,15.44
2018-10-05T08:03:25.621Z,15.37
2018-10-05T08:04:25.774Z,15.24
2018-10-05T08:05:25.817Z,15.18
2018-10-05T08:06:25.648Z,15.11
2018-10-05T08:07:25.512Z,15.00
2018-10-05T08:08:25.541Z,15.06
2018-10-05T08:09:25.570Z,15.10
2018-10-05T08:10:25.478Z,15.10
2018-10-05T08:11:25.505Z,15.14
2018-10-05T08:12:25.452Z,15.09
2018-10-05T08:13:33.649Z,15.18
2018-10-05T08:14:25.483Z,15.10
2018-10-05T08:15:25.436Z,15.03
2018-10-05T08:16:25.476Z,15.09
2018-10-05T08:17:25.427Z,15.07
2018-10-05T08:18:25.409Z,15.17
2018-10-05T08:19:25.412Z,15.19
2018-10-05T08:20:25.780Z,15.22
2018-10-05T08:21:25.386Z,15.27
2018-10-05T08:22:25.547Z,15.35
2018-10-05T08:23:25.439Z,15.37
2018-10-05T08:24:25.541Z,15.47
2018-10-05T08:25:25.396Z,15.44
2018-10-05T08:26:25.466Z,15.44
2018-10-05T08:27:25.292Z,15.64
2018-10-05T08:28:25.277Z,15.55
2018-10-05T08:29:25.297Z,15.61
2018-10-05T08:30:25.645Z,15.67
2018-10-05T08:31:25.240Z,15.72
2018-10-05T08:32:34.566Z,15.64
2018-10-05T08:33:25.463Z,15.72
2018-10-05T08:34:25.258Z,15.67
2018-10-05T08:35:25.270Z,15.67
2018-10-05T08:36:25.516Z,15.76
2018-10-05T08:37:25.278Z,15.82
2018-10-05T08:38:25.284Z,15.83
2018-10-05T08:39:25.172Z,15.90
2018-10-05T08:40:25.185Z,15.83
2018-10-05T08:41:25.129Z,15.90
2018-10-05T08:42:25.172Z,15.80
2018-10-05T08:43:25.109Z,15.91
2018-10-05T08:44:25.232Z,15.79
2018-10-05T08:45:25.090Z,15.97
2018-10-05T08:46:25.074Z,15.88
2018-10-05T08:47:25.066Z,15.90
2018-10-05T08:48:25.059Z,15.86
2018-10-05T08:49:25.095Z,15.84
2018-10-05T08:50:25.050Z,15.73
2018-10-05T08:51:25.231Z,15.62
2018-10-05T08:52:33.225Z,15.59
2018-10-05T08:53:25.064Z,15.61
2018-10-05T08:54:25.017Z,15.62
2018-10-05T08:55:25.992Z,15.72
2018-10-05T08:56:25.290Z,15.72
2018-10-05T08:57:25.229Z,15.75
2018-10-05T08:58:24.997Z,15.73
2018-10-05T08:59:24.930Z,15.75
2018-10-05T09:00:25.004Z,15.73
2018-10-05T09:01:24.916Z,15.75
2018-10-05T09:02:24.916Z,15.79
2018-10-05T09:03:24.939Z,15.80
2018-10-05T09:04:24.883Z,15.70
2018-10-05T09:05:25.039Z,15.82
2018-10-05T09:06:24.855Z,15.84
2018-10-05T09:07:24.941Z,15.84
2018-10-05T09:08:24.850Z,15.88
2018-10-05T09:09:24.915Z,15.94
2018-10-05T09:10:24.939Z,15.90
2018-10-05T09:11:32.903Z,15.83
2018-10-05T09:12:24.847Z,15.92
2018-10-05T09:13:24.792Z,16.00
2018-10-05T09:14:24.815Z,15.98
2018-10-05T09:15:24.890Z,15.97
2018-10-05T09:16:24.851Z,15.97
2018-10-05T09:17:24.782Z,16.08
2018-10-05T09:18:24.724Z,16.12
2018-10-05T09:19:24.741Z,16.16
2018-10-05T09:20:24.798Z,16.26
2018-10-05T09:21:24.690Z,16.23
2018-10-05T09:22:24.676Z,16.33
2018-10-05T09:23:24.706Z,16.33
2018-10-05T09:24:24.669Z,16.29
2018-10-05T09:25:24.645Z,16.32
2018-10-05T09:26:24.679Z,16.38
2018-10-05T09:27:24.635Z,16.47
2018-10-05T09:28:24.714Z,16.46
2018-10-05T09:29:24.604Z,16.49
2018-10-05T09:30:24.589Z,16.41
2018-10-05T09:31:32.332Z,16.51
2018-10-05T09:32:24.834Z,16.66
2018-10-05T09:33:24.590Z,16.66
2018-10-05T09:34:24.577Z,16.60
2018-10-05T09:35:24.536Z,16.64
2018-10-05T09:36:24.527Z,16.54
2018-10-05T09:37:24.564Z,16.61
2018-10-05T09:38:24.516Z,16.60
2018-10-05T09:39:24.516Z,16.76
2018-10-05T09:40:24.745Z,16.79
2018-10-05T09:41:24.529Z,16.89
2018-10-05T09:42:24.577Z,16.87
2018-10-05T09:43:24.463Z,16.81
2018-10-05T09:44:24.458Z,16.84
2018-10-05T09:45:24.558Z,16.76
2018-10-05T09:46:24.457Z,16.76
2018-10-05T09:47:24.459Z,16.69
2018-10-05T09:48:24.463Z,16.78
2018-10-05T09:49:24.487Z,16.91
2018-10-05T09:50:32.434Z,17.05
2018-10-05T09:51:24.478Z,17.08
2018-10-05T09:52:24.484Z,17.06
2018-10-05T09:53:24.489Z,17.20
2018-10-05T09:54:24.475Z,17.33
2018-10-05T09:55:24.312Z,17.33
2018-10-05T09:56:24.328Z,17.48
2018-10-05T09:57:24.291Z,17.51
2018-10-05T09:58:24.278Z,17.63
2018-10-05T09:59:24.315Z,17.67
2018-10-05T10:00:24.270Z,17.87
2018-10-05T10:01:24.303Z,17.82
2018-10-05T10:02:24.240Z,17.90
2018-10-05T10:03:24.230Z,17.92
2018-10-05T10:04:24.248Z,18.07
2018-10-05T10:05:24.202Z,18.07
2018-10-05T10:06:24.301Z,18.05
2018-10-05T10:07:24.178Z,18.03
2018-10-05T10:08:24.202Z,18.10
2018-10-05T10:09:32.244Z,18.20
2018-10-05T10:10:24.217Z,18.31
2018-10-05T10:11:24.222Z,18.31
2018-10-05T10:12:24.208Z,18.45
2018-10-05T10:13:24.111Z,18.58
2018-10-05T10:14:24.153Z,18.62
2018-10-05T10:15:24.091Z,18.60
2018-10-05T10:16:24.077Z,18.60
2018-10-05T10:17:24.108Z,18.66
2018-10-05T10:18:24.055Z,18.78
2018-10-05T10:19:24.065Z,18.84
2018-10-05T10:20:24.052Z,19.04
2018-10-05T10:21:24.022Z,19.12
2018-10-05T10:22:24.013Z,19.22
2018-10-05T10:23:23.999Z,19.19
2018-10-05T10:24:23.995Z,19.27
2018-10-05T10:25:24.012Z,19.36
2018-10-05T10:26:23.988Z,19.41
2018-10-05T10:27:23.957Z,19.44
2018-10-05T10:28:24.057Z,19.58
2018-10-05T10:29:31.986Z,19.70
2018-10-05T10:30:23.946Z,19.89
2018-10-05T10:31:24.008Z,19.82
2018-10-05T10:32:23.921Z,19.89
2018-10-05T10:33:23.912Z,19.92
2018-10-05T10:34:24.021Z,19.84
2018-10-05T10:35:23.868Z,19.86
2018-10-05T10:36:23.858Z,20.03
2018-10-05T10:37:23.867Z,20.13
2018-10-05T10:38:24.023Z,20.11
2018-10-05T10:39:24.053Z,20.21
2018-10-05T10:40:23.879Z,20.16
2018-10-05T10:41:23.928Z,20.21
2018-10-05T10:42:23.802Z,20.31
2018-10-05T10:43:23.802Z,20.37
2018-10-05T10:44:23.828Z,20.43
2018-10-05T10:45:23.791Z,20.41
2018-10-05T10:46:23.747Z,20.52
2018-10-05T10:47:23.769Z,20.56
2018-10-05T10:48:23.728Z,20.56
2018-10-05T10:49:33.274Z,20.67
2018-10-05T10:50:23.751Z,20.70
2018-10-05T10:51:23.878Z,20.63
2018-10-05T10:52:23.778Z,20.69
2018-10-05T10:53:23.876Z,20.75
2018-10-05T10:54:23.810Z,20.70
2018-10-05T10:55:23.665Z,20.77
2018-10-05T10:56:23.738Z,20.80
2018-10-05T10:57:23.628Z,20.90
2018-10-05T10:58:23.619Z,21.03
2018-10-05T10:59:23.719Z,21.03
2018-10-05T11:00:23.597Z,20.96
2018-10-05T11:01:23.588Z,20.99
2018-10-05T11:02:23.597Z,21.00
2018-10-05T11:03:23.629Z,21.02
2018-10-05T11:04:23.596Z,21.07
2018-10-05T11:05:23.558Z,21.03
2018-10-05T11:06:23.669Z,21.06
2018-10-05T11:07:23.569Z,21.06
2018-10-05T11:08:31.560Z,21.20
2018-10-05T11:09:23.556Z,21.20
2018-10-05T11:10:23.593Z,21.27
2018-10-05T11:11:23.559Z,21.21
2018-10-05T11:12:23.543Z,21.35
2018-10-05T11:13:23.567Z,21.27
2018-10-05T11:14:23.455Z,21.39
2018-10-05T11:15:23.467Z,21.37
2018-10-05T11:16:23.418Z,21.50
2018-10-05T11:17:23.424Z,21.29
2018-10-05T11:18:23.436Z,21.32
2018-10-05T11:19:23.387Z,21.33
2018-10-05T11:20:23.373Z,21.25
2018-10-05T11:21:23.365Z,21.32
2018-10-05T11:22:23.353Z,21.35
2018-10-05T11:23:23.494Z,21.35
2018-10-05T11:24:23.374Z,21.27
2018-10-05T11:25:23.326Z,21.40
2018-10-05T11:26:23.311Z,21.50
2018-10-05T11:27:23.300Z,21.39
2018-10-05T11:28:32.785Z,21.40
2018-10-05T11:29:23.325Z,21.37
2018-10-05T11:30:23.266Z,21.33
2018-10-05T11:31:23.302Z,21.45
2018-10-05T11:32:23.298Z,21.46
2018-10-05T11:33:23.392Z,21.60
2018-10-05T11:34:23.295Z,21.69
2018-10-05T11:35:23.209Z,21.76
2018-10-05T11:36:23.198Z,21.95
2018-10-05T11:37:23.307Z,21.98
2018-10-05T11:38:23.178Z,21.82
2018-10-05T11:39:23.164Z,21.83
2018-10-05T11:40:23.199Z,21.82
2018-10-05T11:41:23.168Z,21.69
2018-10-05T11:42:23.131Z,21.61
2018-10-05T11:43:23.218Z,21.61
2018-10-05T11:44:23.111Z,21.52
2018-10-05T11:45:23.097Z,21.62
2018-10-05T11:46:23.115Z,21.60
2018-10-05T11:47:31.823Z,21.66
2018-10-05T11:48:32.337Z,21.82
2018-10-05T11:49:23.100Z,21.80
2018-10-05T11:50:23.045Z,21.73
2018-10-05T11:51:23.075Z,21.80
2018-10-05T11:52:23.136Z,21.89
2018-10-05T11:53:23.090Z,21.89
2018-10-05T11:54:23.110Z,21.89
2018-10-05T11:55:22.990Z,21.83
2018-10-05T11:56:22.990Z,21.72
2018-10-05T11:57:22.994Z,21.70
2018-10-05T11:58:23.061Z,21.77
2018-10-05T11:59:22.943Z,21.85
2018-10-05T12:00:22.964Z,21.95
2018-10-05T12:01:22.920Z,21.92
2018-10-05T12:02:22.956Z,22.02
2018-10-05T12:03:23.148Z,22.08
2018-10-05T12:04:22.889Z,22.07
2018-10-05T12:05:22.946Z,22.15
2018-10-05T12:06:22.903Z,22.25
2018-10-05T12:07:22.873Z,22.28
2018-10-05T12:08:30.880Z,22.30
2018-10-05T12:09:22.861Z,22.39
2018-10-05T12:10:22.966Z,22.32
2018-10-05T12:11:22.810Z,22.30
2018-10-05T12:12:22.855Z,22.25
2018-10-05T12:13:22.925Z,22.29
2018-10-05T12:14:22.932Z,22.28
2018-10-05T12:15:22.922Z,22.18
2018-10-05T12:16:22.789Z,22.11
2018-10-05T12:17:22.806Z,22.23
2018-10-05T12:18:22.886Z,22.28
2018-10-05T12:19:22.796Z,22.26
2018-10-05T12:20:22.718Z,22.23
2018-10-05T12:21:22.706Z,22.13
2018-10-05T12:22:22.686Z,22.20
2018-10-05T12:23:22.802Z,22.10
2018-10-05T12:24:22.681Z,21.98
2018-10-05T12:25:22.672Z,21.98
2018-10-05T12:26:22.760Z,22.07
2018-10-05T12:27:30.864Z,22.08
2018-10-05T12:28:22.703Z,22.11
2018-10-05T12:29:22.768Z,21.99
2018-10-05T12:30:22.680Z,21.99
2018-10-05T12:31:22.777Z,22.04
2018-10-05T12:32:22.746Z,22.07
2018-10-05T12:33:22.693Z,21.95
2018-10-05T12:34:22.590Z,21.99
2018-10-05T12:35:22.543Z,22.00
2018-10-05T12:36:22.583Z,21.91
2018-10-05T12:37:22.545Z,21.89
2018-10-05T12:38:22.679Z,21.95
2018-10-05T12:39:22.502Z,21.96
2018-10-05T12:40:22.504Z,22.02
2018-10-05T12:41:22.511Z,21.95
2018-10-05T12:42:22.472Z,21.93
2018-10-05T12:43:22.478Z,22.07
2018-10-05T12:44:22.481Z,22.11
2018-10-05T12:45:22.437Z,22.07
2018-10-05T12:46:22.424Z,22.13
2018-10-05T12:47:22.413Z,22.08
2018-10-05T12:48:22.436Z,22.07
2018-10-05T12:49:22.454Z,22.04
2018-10-05T12:50:22.377Z,22.15
2018-10-05T12:51:22.383Z,22.08
2018-10-05T12:52:22.360Z,22.11
2018-10-05T12:53:22.352Z,22.10
2018-10-05T12:54:22.335Z,22.25
2018-10-05T12:55:22.391Z,22.15
2018-10-05T12:56:22.326Z,22.10
2018-10-05T12:57:22.310Z,22.13
2018-10-05T12:58:22.291Z,22.18
2018-10-05T12:59:22.281Z,22.18
2018-10-05T13:00:30.036Z,22.11
2018-10-05T13:01:22.317Z,22.07
2018-10-05T13:02:22.254Z,21.93